sensor_id;sensor_type;location;lat;lon;timestamp;temperature;humidity
23731;DHT22;12046;44.702;10.622;2023-04-01T00:00:57;14.10;99.90
23731;DHT22;12046;44.702;10.622;2023-04-01T00:03:24;14.10;99.90
23731;DHT22;12046;44.702;10.622;2023-04-01T00:05:51;14.10;99.90
23731;DHT22;12046;44.702;10.622;2023-04-01T00:08:17;14.10;99.90
23731;DHT22;12046;44.702;10.622;2023-04-01T00:10:43;14.10;99.90
23731;DHT22;12046;44.702;10.622;2023-04-01T00:13:09;14.10;99.90
23731;DHT22;12046;44.702;10.622;2023-04-01T00:15:35;14.10;99.90
23731;DHT22;12046;44.702;10.622;2023-04-01T00:18:01;14.10;99.90
23731;DHT22;12046;44.702;10.622;2023-04-01T00:20:28;14.00;99.90
23731;DHT22;12046;44.702;10.622;2023-04-01T00:22:53;14.10;99.90
23731;DHT22;12046;44.702;10.622;2023-04-01T00:25:20;14.10;99.90
23731;DHT22;12046;44.702;10.622;2023-04-01T00:27:46;14.00;99.90
23731;DHT22;12046;44.702;10.622;2023-04-01T00:30:12;14.00;99.90
23731;DHT22;12046;44.702;10.622;2023-04-01T00:32:38;14.00;99.90
23731;DHT22;12046;44.702;10.622;2023-04-01T00:35:04;14.00;99.90
23731;DHT22;12046;44.702;10.622;2023-04-01T00:37:30;13.90;99.90
23731;DHT22;12046;44.702;10.622;2023-04-01T00:39:56;13.90;99.90
23731;DHT22;12046;44.702;10.622;2023-04-01T00:42:23;13.90;99.90
23731;DHT22;12046;44.702;10.622;2023-04-01T00:44:54;13.80;99.90
23731;DHT22;12046;44.702;10.622;2023-04-01T00:47:20;13.80;99.90
23731;DHT22;12046;44.702;10.622;2023-04-01T00:49:49;13.80;99.90
23731;DHT22;12046;44.702;10.622;2023-04-01T00:52:20;13.70;99.90
23731;DHT22;12046;44.702;10.622;2023-04-01T00:54:56;13.70;99.90
23731;DHT22;12046;44.702;10.622;2023-04-01T00:57:34;13.70;99.90
23731;DHT22;12046;44.702;10.622;2023-04-01T01:00:04;13.70;99.90
23731;DHT22;12046;44.702;10.622;2023-04-01T01:02:33;13.60;99.90
23731;DHT22;12046;44.702;10.622;2023-04-01T01:05:00;13.60;99.90
23731;DHT22;12046;44.702;10.622;2023-04-01T01:07:49;13.50;99.90
23731;DHT22;12046;44.702;10.622;2023-04-01T01:10:33;13.50;99.90
23731;DHT22;12046;44.702;10.622;2023-04-01T01:16:23;13.40;99.90
23731;DHT22;12046;44.702;10.622;2023-04-01T01:19:10;13.40;99.90
23731;DHT22;12046;44.702;10.622;2023-04-01T01:24:37;13.30;99.90
23731;DHT22;12046;44.702;10.622;2023-04-01T01:27:11;13.30;99.90
23731;DHT22;12046;44.702;10.622;2023-04-01T01:32:38;13.20;99.90
23731;DHT22;12046;44.702;10.622;2023-04-01T01:37:47;13.10;99.90
23731;DHT22;12046;44.702;10.622;2023-04-01T01:40:16;13.10;99.90
23731;DHT22;12046;44.702;10.622;2023-04-01T01:42:48;13.10;99.90
23731;DHT22;12046;44.702;10.622;2023-04-01T01:45:17;13.00;99.90
23731;DHT22;12046;44.702;10.622;2023-04-01T01:47:45;13.00;99.90
23731;DHT22;12046;44.702;10.622;2023-04-01T01:50:12;13.00;99.90
23731;DHT22;12046;44.702;10.622;2023-04-01T01:52:39;13.00;99.90
23731;DHT22;12046;44.702;10.622;2023-04-01T01:55:29;12.90;99.90
23731;DHT22;12046;44.702;10.622;2023-04-01T01:57:58;12.90;99.90
23731;DHT22;12046;44.702;10.622;2023-04-01T02:00:25;12.90;99.90
23731;DHT22;12046;44.702;10.622;2023-04-01T02:02:51;12.90;99.90
23731;DHT22;12046;44.702;10.622;2023-04-01T02:05:23;12.90;99.90
23731;DHT22;12046;44.702;10.622;2023-04-01T02:07:57;12.80;99.90
23731;DHT22;12046;44.702;10.622;2023-04-01T02:10:26;12.80;99.90
23731;DHT22;12046;44.702;10.622;2023-04-01T02:12:57;12.80;99.90
23731;DHT22;12046;44.702;10.622;2023-04-01T02:15:25;12.70;99.90
23731;DHT22;12046;44.702;10.622;2023-04-01T02:17:51;12.70;99.90
23731;DHT22;12046;44.702;10.622;2023-04-01T02:20:20;12.60;99.90
23731;DHT22;12046;44.702;10.622;2023-04-01T02:22:55;12.50;99.90
23731;DHT22;12046;44.702;10.622;2023-04-01T02:25:25;12.50;99.90
23731;DHT22;12046;44.702;10.622;2023-04-01T02:27:52;12.40;99.90
23731;DHT22;12046;44.702;10.622;2023-04-01T02:30:19;12.40;99.90
23731;DHT22;12046;44.702;10.622;2023-04-01T02:32:46;12.40;99.90
23731;DHT22;12046;44.702;10.622;2023-04-01T02:35:15;12.30;99.90
23731;DHT22;12046;44.702;10.622;2023-04-01T02:37:43;12.30;99.90
23731;DHT22;12046;44.702;10.622;2023-04-01T02:40:13;12.30;99.90
23731;DHT22;12046;44.702;10.622;2023-04-01T02:42:39;12.30;99.90
23731;DHT22;12046;44.702;10.622;2023-04-01T02:45:06;12.30;99.90
23731;DHT22;12046;44.702;10.622;2023-04-01T02:47:32;12.30;99.90
23731;DHT22;12046;44.702;10.622;2023-04-01T02:49:58;12.30;99.90
23731;DHT22;12046;44.702;10.622;2023-04-01T02:52:33;12.30;99.90
23731;DHT22;12046;44.702;10.622;2023-04-01T02:54:59;12.30;99.90
23731;DHT22;12046;44.702;10.622;2023-04-01T02:57:25;12.30;99.90
23731;DHT22;12046;44.702;10.622;2023-04-01T02:59:51;12.20;99.90
23731;DHT22;12046;44.702;10.622;2023-04-01T03:02:17;12.20;99.90
23731;DHT22;12046;44.702;10.622;2023-04-01T03:04:43;12.20;99.90
23731;DHT22;12046;44.702;10.622;2023-04-01T03:07:09;12.20;99.90
23731;DHT22;12046;44.702;10.622;2023-04-01T03:09:37;12.30;99.90
23731;DHT22;12046;44.702;10.622;2023-04-01T03:12:03;12.20;99.90
23731;DHT22;12046;44.702;10.622;2023-04-01T03:14:29;12.20;99.90
23731;DHT22;12046;44.702;10.622;2023-04-01T03:16:54;12.20;99.90
23731;DHT22;12046;44.702;10.622;2023-04-01T03:19:20;12.20;99.90
23731;DHT22;12046;44.702;10.622;2023-04-01T03:21:46;12.20;99.90
23731;DHT22;12046;44.702;10.622;2023-04-01T03:24:12;12.20;99.90
23731;DHT22;12046;44.702;10.622;2023-04-01T03:26:38;12.10;99.90
23731;DHT22;12046;44.702;10.622;2023-04-01T03:29:03;12.10;99.90
23731;DHT22;12046;44.702;10.622;2023-04-01T03:31:30;12.10;99.90
23731;DHT22;12046;44.702;10.622;2023-04-01T03:33:55;12.10;99.90
23731;DHT22;12046;44.702;10.622;2023-04-01T03:36:21;12.00;99.90
23731;DHT22;12046;44.702;10.622;2023-04-01T03:38:48;11.90;99.90
23731;DHT22;12046;44.702;10.622;2023-04-01T03:41:15;11.90;99.90
23731;DHT22;12046;44.702;10.622;2023-04-01T03:43:41;11.80;99.90
23731;DHT22;12046;44.702;10.622;2023-04-01T03:46:07;11.80;99.90
23731;DHT22;12046;44.702;10.622;2023-04-01T03:48:33;11.80;99.90
23731;DHT22;12046;44.702;10.622;2023-04-01T03:50:59;11.80;99.90
23731;DHT22;12046;44.702;10.622;2023-04-01T03:53:25;11.70;99.90
23731;DHT22;12046;44.702;10.622;2023-04-01T03:55:50;11.80;99.90
23731;DHT22;12046;44.702;10.622;2023-04-01T03:58:17;11.70;99.90
23731;DHT22;12046;44.702;10.622;2023-04-01T04:00:43;11.70;99.90
23731;DHT22;12046;44.702;10.622;2023-04-01T04:03:09;11.70;99.90
23731;DHT22;12046;44.702;10.622;2023-04-01T04:05:35;11.70;99.90
23731;DHT22;12046;44.702;10.622;2023-04-01T04:08:01;11.70;99.90
23731;DHT22;12046;44.702;10.622;2023-04-01T04:10:27;11.60;99.90
23731;DHT22;12046;44.702;10.622;2023-04-01T04:12:54;11.60;99.90
23731;DHT22;12046;44.702;10.622;2023-04-01T04:15:20;11.50;99.90
23731;DHT22;12046;44.702;10.622;2023-04-01T04:17:47;11.50;99.90
23731;DHT22;12046;44.702;10.622;2023-04-01T04:20:13;11.40;99.90
23731;DHT22;12046;44.702;10.622;2023-04-01T04:22:39;11.40;99.90
23731;DHT22;12046;44.702;10.622;2023-04-01T04:25:05;11.30;99.90
23731;DHT22;12046;44.702;10.622;2023-04-01T04:27:31;11.30;99.90
23731;DHT22;12046;44.702;10.622;2023-04-01T04:29:57;11.30;99.90
23731;DHT22;12046;44.702;10.622;2023-04-01T04:32:23;11.20;99.90
23731;DHT22;12046;44.702;10.622;2023-04-01T04:34:48;11.20;99.90
23731;DHT22;12046;44.702;10.622;2023-04-01T04:37:14;11.20;99.90
23731;DHT22;12046;44.702;10.622;2023-04-01T04:39:40;11.20;99.90
23731;DHT22;12046;44.702;10.622;2023-04-01T04:42:06;11.20;99.90
23731;DHT22;12046;44.702;10.622;2023-04-01T04:44:31;11.20;99.90
23731;DHT22;12046;44.702;10.622;2023-04-01T04:46:57;11.20;99.90
23731;DHT22;12046;44.702;10.622;2023-04-01T04:49:23;11.10;99.90
23731;DHT22;12046;44.702;10.622;2023-04-01T04:51:49;11.00;99.90
23731;DHT22;12046;44.702;10.622;2023-04-01T04:54:15;10.90;99.90
23731;DHT22;12046;44.702;10.622;2023-04-01T04:56:41;10.80;99.90
23731;DHT22;12046;44.702;10.622;2023-04-01T04:59:07;10.70;99.90
23731;DHT22;12046;44.702;10.622;2023-04-01T05:01:33;10.70;99.90
23731;DHT22;12046;44.702;10.622;2023-04-01T05:03:59;10.60;99.90
23731;DHT22;12046;44.702;10.622;2023-04-01T05:06:25;10.50;99.90
23731;DHT22;12046;44.702;10.622;2023-04-01T05:08:55;10.50;99.90
23731;DHT22;12046;44.702;10.622;2023-04-01T05:11:21;10.50;99.90
23731;DHT22;12046;44.702;10.622;2023-04-01T05:13:47;10.40;99.90
23731;DHT22;12046;44.702;10.622;2023-04-01T05:16:15;10.40;99.90
23731;DHT22;12046;44.702;10.622;2023-04-01T05:18:41;10.40;99.90
23731;DHT22;12046;44.702;10.622;2023-04-01T05:21:09;10.40;99.90
23731;DHT22;12046;44.702;10.622;2023-04-01T05:23:35;10.50;99.90
23731;DHT22;12046;44.702;10.622;2023-04-01T05:26:12;10.50;99.90
23731;DHT22;12046;44.702;10.622;2023-04-01T05:28:39;10.60;99.90
23731;DHT22;12046;44.702;10.622;2023-04-01T05:31:06;10.60;99.90
23731;DHT22;12046;44.702;10.622;2023-04-01T05:33:32;10.70;99.90
23731;DHT22;12046;44.702;10.622;2023-04-01T05:36:12;10.70;99.90
23731;DHT22;12046;44.702;10.622;2023-04-01T05:38:39;10.70;99.90
23731;DHT22;12046;44.702;10.622;2023-04-01T05:41:05;10.70;99.90
23731;DHT22;12046;44.702;10.622;2023-04-01T05:43:31;10.60;99.90
23731;DHT22;12046;44.702;10.622;2023-04-01T05:45:57;10.60;99.90
23731;DHT22;12046;44.702;10.622;2023-04-01T05:48:23;10.60;99.90
23731;DHT22;12046;44.702;10.622;2023-04-01T05:50:49;10.60;99.90
23731;DHT22;12046;44.702;10.622;2023-04-01T05:53:15;10.60;99.90
23731;DHT22;12046;44.702;10.622;2023-04-01T05:55:40;10.60;99.90
23731;DHT22;12046;44.702;10.622;2023-04-01T05:58:06;10.70;99.90
23731;DHT22;12046;44.702;10.622;2023-04-01T06:00:32;10.70;99.90
23731;DHT22;12046;44.702;10.622;2023-04-01T06:02:59;10.80;99.90
23731;DHT22;12046;44.702;10.622;2023-04-01T06:05:28;10.90;99.90
23731;DHT22;12046;44.702;10.622;2023-04-01T06:08:12;10.90;99.90
23731;DHT22;12046;44.702;10.622;2023-04-01T06:16:46;11.20;99.90
23731;DHT22;12046;44.702;10.622;2023-04-01T06:24:42;11.60;99.90
23731;DHT22;12046;44.702;10.622;2023-04-01T06:32:41;12.00;99.90
23731;DHT22;12046;44.702;10.622;2023-04-01T06:35:20;12.10;99.90
23731;DHT22;12046;44.702;10.622;2023-04-01T06:46:12;12.90;99.90
23731;DHT22;12046;44.702;10.622;2023-04-01T06:56:29;13.70;99.90
23731;DHT22;12046;44.702;10.622;2023-04-01T06:59:25;13.90;99.90
23731;DHT22;12046;44.702;10.622;2023-04-01T07:02:09;14.00;99.90
23731;DHT22;12046;44.702;10.622;2023-04-01T07:04:46;14.20;99.90
23731;DHT22;12046;44.702;10.622;2023-04-01T07:07:35;14.40;99.90
23731;DHT22;12046;44.702;10.622;2023-04-01T07:12:56;14.70;99.90
23731;DHT22;12046;44.702;10.622;2023-04-01T07:15:33;14.90;99.90
23731;DHT22;12046;44.702;10.622;2023-04-01T07:18:05;15.00;99.90
23731;DHT22;12046;44.702;10.622;2023-04-01T07:20:36;15.20;99.90
23731;DHT22;12046;44.702;10.622;2023-04-01T07:23:05;15.30;99.90
23731;DHT22;12046;44.702;10.622;2023-04-01T07:25:43;15.40;99.90
23731;DHT22;12046;44.702;10.622;2023-04-01T07:28:15;15.50;99.90
23731;DHT22;12046;44.702;10.622;2023-04-01T07:34:05;15.80;99.90
23731;DHT22;12046;44.702;10.622;2023-04-01T07:36:43;15.90;99.90
23731;DHT22;12046;44.702;10.622;2023-04-01T07:42:00;16.10;99.90
23731;DHT22;12046;44.702;10.622;2023-04-01T07:49:43;16.20;99.90
23731;DHT22;12046;44.702;10.622;2023-04-01T07:56:01;16.50;99.90
23731;DHT22;12046;44.702;10.622;2023-04-01T08:03:43;16.90;99.90
23731;DHT22;12046;44.702;10.622;2023-04-01T08:11:28;17.30;99.00
23731;DHT22;12046;44.702;10.622;2023-04-01T08:25:06;17.80;96.50
23731;DHT22;12046;44.702;10.622;2023-04-01T08:27:39;18.00;96.60
23731;DHT22;12046;44.702;10.622;2023-04-01T08:30:23;18.10;96.60
23731;DHT22;12046;44.702;10.622;2023-04-01T08:35:45;18.40;96.20
23731;DHT22;12046;44.702;10.622;2023-04-01T08:52:32;19.40;93.70
23731;DHT22;12046;44.702;10.622;2023-04-01T09:00:31;19.90;93.10
23731;DHT22;12046;44.702;10.622;2023-04-01T09:05:46;20.30;92.80
23731;DHT22;12046;44.702;10.622;2023-04-01T09:11:21;20.60;91.90
23731;DHT22;12046;44.702;10.622;2023-04-01T09:20:14;20.90;91.40
23731;DHT22;12046;44.702;10.622;2023-04-01T09:30:38;21.50;90.50
23731;DHT22;12046;44.702;10.622;2023-04-01T09:33:49;21.50;90.50
23731;DHT22;12046;44.702;10.622;2023-04-01T09:44:36;22.10;88.40
23731;DHT22;12046;44.702;10.622;2023-04-01T10:01:39;24.40;82.10
23731;DHT22;12046;44.702;10.622;2023-04-01T10:09:58;25.30;78.10
23731;DHT22;12046;44.702;10.622;2023-04-01T10:20:54;25.60;76.40
23731;DHT22;12046;44.702;10.622;2023-04-01T10:23:43;25.50;75.70
23731;DHT22;12046;44.702;10.622;2023-04-01T10:26:42;25.40;75.30
23731;DHT22;12046;44.702;10.622;2023-04-01T10:40:37;24.80;73.60
23731;DHT22;12046;44.702;10.622;2023-04-01T11:14:26;24.70;70.40
23731;DHT22;12046;44.702;10.622;2023-04-01T11:36:05;24.70;68.10
23731;DHT22;12046;44.702;10.622;2023-04-01T11:38:53;24.60;64.70
23731;DHT22;12046;44.702;10.622;2023-04-01T11:44:43;24.50;66.00
23731;DHT22;12046;44.702;10.622;2023-04-01T11:47:43;24.60;66.00
23731;DHT22;12046;44.702;10.622;2023-04-01T11:53:23;25.00;64.70
23731;DHT22;12046;44.702;10.622;2023-04-01T12:07:55;25.60;52.40
23731;DHT22;12046;44.702;10.622;2023-04-01T12:16:21;25.50;50.60
23731;DHT22;12046;44.702;10.622;2023-04-01T12:19:08;25.50;50.30
23731;DHT22;12046;44.702;10.622;2023-04-01T12:21:41;25.60;49.70
23731;DHT22;12046;44.702;10.622;2023-04-01T12:25:17;25.70;48.90
23731;DHT22;12046;44.702;10.622;2023-04-01T12:30:16;26.00;48.30
23731;DHT22;12046;44.702;10.622;2023-04-01T12:52:07;26.60;44.70
23731;DHT22;12046;44.702;10.622;2023-04-01T13:00:18;26.70;43.90
23731;DHT22;12046;44.702;10.622;2023-04-01T13:05:44;26.80;45.10
23731;DHT22;12046;44.702;10.622;2023-04-01T13:16:18;26.80;44.10
23731;DHT22;12046;44.702;10.622;2023-04-01T13:19:03;26.80;44.00
23731;DHT22;12046;44.702;10.622;2023-04-01T13:21:50;26.80;44.10
23731;DHT22;12046;44.702;10.622;2023-04-01T13:27:05;26.70;43.60
23731;DHT22;12046;44.702;10.622;2023-04-01T13:32:18;26.70;43.40
23731;DHT22;12046;44.702;10.622;2023-04-01T13:35:04;26.70;43.50
23731;DHT22;12046;44.702;10.622;2023-04-01T13:37:59;26.70;43.60
23731;DHT22;12046;44.702;10.622;2023-04-01T13:40:51;26.80;43.10
23731;DHT22;12046;44.702;10.622;2023-04-01T13:46:16;26.70;43.00
23731;DHT22;12046;44.702;10.622;2023-04-01T14:00:03;26.40;42.90
23731;DHT22;12046;44.702;10.622;2023-04-01T14:03:09;26.40;42.80
23731;DHT22;12046;44.702;10.622;2023-04-01T14:08:34;26.40;43.10
23731;DHT22;12046;44.702;10.622;2023-04-01T14:16:59;26.20;43.20
23731;DHT22;12046;44.702;10.622;2023-04-01T14:22:34;26.10;43.80
23731;DHT22;12046;44.702;10.622;2023-04-01T14:33:30;26.10;43.50
23731;DHT22;12046;44.702;10.622;2023-04-01T14:38:59;26.20;43.80
23731;DHT22;12046;44.702;10.622;2023-04-01T14:41:35;26.20;44.00
23731;DHT22;12046;44.702;10.622;2023-04-01T14:50:29;26.10;43.80
23731;DHT22;12046;44.702;10.622;2023-04-01T14:55:53;26.00;43.90
23731;DHT22;12046;44.702;10.622;2023-04-01T14:58:24;26.00;43.90
23731;DHT22;12046;44.702;10.622;2023-04-01T15:14:24;25.70;43.20
23731;DHT22;12046;44.702;10.622;2023-04-01T15:17:14;25.60;43.30
23731;DHT22;12046;44.702;10.622;2023-04-01T15:25:27;25.20;43.40
23731;DHT22;12046;44.702;10.622;2023-04-01T15:33:32;24.90;43.80
23731;DHT22;12046;44.702;10.622;2023-04-01T15:39:18;24.60;43.70
23731;DHT22;12046;44.702;10.622;2023-04-01T16:03:59;23.60;44.10
23731;DHT22;12046;44.702;10.622;2023-04-01T16:15:21;23.30;44.40
23731;DHT22;12046;44.702;10.622;2023-04-01T16:23:40;23.10;44.70
23731;DHT22;12046;44.702;10.622;2023-04-01T16:29:03;22.90;46.20
23731;DHT22;12046;44.702;10.622;2023-04-01T16:31:37;22.70;45.80
23731;DHT22;12046;44.702;10.622;2023-04-01T16:34:21;22.50;46.20
23731;DHT22;12046;44.702;10.622;2023-04-01T16:37:06;22.30;46.70
23731;DHT22;12046;44.702;10.622;2023-04-01T16:47:21;21.90;48.00
23731;DHT22;12046;44.702;10.622;2023-04-01T16:50:05;21.80;48.10
23731;DHT22;12046;44.702;10.622;2023-04-01T16:53:14;21.60;48.30
23731;DHT22;12046;44.702;10.622;2023-04-01T17:01:27;21.20;49.40
23731;DHT22;12046;44.702;10.622;2023-04-01T17:04:19;21.10;49.60
23731;DHT22;12046;44.702;10.622;2023-04-01T17:06:48;21.10;49.70
23731;DHT22;12046;44.702;10.622;2023-04-01T17:12:21;21.00;50.10
23731;DHT22;12046;44.702;10.622;2023-04-01T17:20:56;20.90;50.70
23731;DHT22;12046;44.702;10.622;2023-04-01T17:23:34;20.80;50.80
23731;DHT22;12046;44.702;10.622;2023-04-01T17:28:57;20.70;51.10
23731;DHT22;12046;44.702;10.622;2023-04-01T17:39:56;20.20;51.90
23731;DHT22;12046;44.702;10.622;2023-04-01T17:42:38;20.10;52.10
23731;DHT22;12046;44.702;10.622;2023-04-01T17:50:53;19.70;52.80
23731;DHT22;12046;44.702;10.622;2023-04-01T17:53:55;19.60;52.90
23731;DHT22;12046;44.702;10.622;2023-04-01T18:04:54;19.10;53.50
23731;DHT22;12046;44.702;10.622;2023-04-01T18:07:32;19.10;53.60
23731;DHT22;12046;44.702;10.622;2023-04-01T18:12:51;18.90;53.70
23731;DHT22;12046;44.702;10.622;2023-04-01T18:24:09;18.60;53.90
23731;DHT22;12046;44.702;10.622;2023-04-01T18:26:38;18.50;54.00
23731;DHT22;12046;44.702;10.622;2023-04-01T18:37:39;18.40;54.60
23731;DHT22;12046;44.702;10.622;2023-04-01T18:45:56;18.40;54.80
23731;DHT22;12046;44.702;10.622;2023-04-01T18:48:44;18.40;54.90
23731;DHT22;12046;44.702;10.622;2023-04-01T18:51:16;18.30;55.00
23731;DHT22;12046;44.702;10.622;2023-04-01T18:59:25;18.20;55.90
23731;DHT22;12046;44.702;10.622;2023-04-01T19:21:56;18.20;56.60
23731;DHT22;12046;44.702;10.622;2023-04-01T19:35:50;18.10;57.40
23731;DHT22;12046;44.702;10.622;2023-04-01T19:38:49;18.00;57.50
23731;DHT22;12046;44.702;10.622;2023-04-01T19:57:52;17.70;58.70
23731;DHT22;12046;44.702;10.622;2023-04-01T20:00:47;17.70;58.80
23731;DHT22;12046;44.702;10.622;2023-04-01T20:03:45;17.70;59.00
23731;DHT22;12046;44.702;10.622;2023-04-01T20:06:36;17.70;59.20
23731;DHT22;12046;44.702;10.622;2023-04-01T20:11:55;17.60;59.40
23731;DHT22;12046;44.702;10.622;2023-04-01T20:25:24;17.40;60.30
23731;DHT22;12046;44.702;10.622;2023-04-01T20:31:36;17.20;60.50
23731;DHT22;12046;44.702;10.622;2023-04-01T20:36:30;17.10;60.80
23731;DHT22;12046;44.702;10.622;2023-04-01T20:44:26;17.00;61.10
23731;DHT22;12046;44.702;10.622;2023-04-01T20:50:05;16.90;61.00
23731;DHT22;12046;44.702;10.622;2023-04-01T20:55:23;16.80;61.00
23731;DHT22;12046;44.702;10.622;2023-04-01T21:06:10;16.70;60.30
23731;DHT22;12046;44.702;10.622;2023-04-01T21:09:11;16.70;60.20
23731;DHT22;12046;44.702;10.622;2023-04-01T21:51:01;16.70;59.40
23731;DHT22;12046;44.702;10.622;2023-04-01T22:10:35;17.00;59.90
23731;DHT22;12046;44.702;10.622;2023-04-01T22:13:13;17.00;59.80
23731;DHT22;12046;44.702;10.622;2023-04-01T22:18:29;17.00;59.90
23731;DHT22;12046;44.702;10.622;2023-04-01T22:21:12;17.10;60.00
23731;DHT22;12046;44.702;10.622;2023-04-01T22:29:33;17.10;60.50
23731;DHT22;12046;44.702;10.622;2023-04-01T22:32:09;17.00;61.00
23731;DHT22;12046;44.702;10.622;2023-04-01T22:42:48;16.90;61.60
23731;DHT22;12046;44.702;10.622;2023-04-01T22:48:22;16.90;61.80
23731;DHT22;12046;44.702;10.622;2023-04-01T22:50:58;16.90;61.90
23731;DHT22;12046;44.702;10.622;2023-04-01T22:56:36;16.80;62.00
23731;DHT22;12046;44.702;10.622;2023-04-01T23:00:20;16.80;62.10
23731;DHT22;12046;44.702;10.622;2023-04-01T23:02:16;16.80;62.20
23731;DHT22;12046;44.702;10.622;2023-04-01T23:04:47;16.70;62.20
23731;DHT22;12046;44.702;10.622;2023-04-01T23:10:25;16.70;62.40
23731;DHT22;12046;44.702;10.622;2023-04-01T23:12:52;16.70;62.60
23731;DHT22;12046;44.702;10.622;2023-04-01T23:15:19;16.70;62.90
23731;DHT22;12046;44.702;10.622;2023-04-01T23:18:33;16.60;63.10
23731;DHT22;12046;44.702;10.622;2023-04-01T23:27:02;16.40;63.90
23731;DHT22;12046;44.702;10.622;2023-04-01T23:29:29;16.30;64.30
23731;DHT22;12046;44.702;10.622;2023-04-01T23:32:02;16.30;64.70
23731;DHT22;12046;44.702;10.622;2023-04-01T23:34:33;16.20;64.90
23731;DHT22;12046;44.702;10.622;2023-04-01T23:37:07;16.10;65.10
23731;DHT22;12046;44.702;10.622;2023-04-01T23:39:41;16.10;65.40
23731;DHT22;12046;44.702;10.622;2023-04-01T23:42:13;16.10;65.60
23731;DHT22;12046;44.702;10.622;2023-04-01T23:44:41;16.00;65.80
23731;DHT22;12046;44.702;10.622;2023-04-01T23:47:14;16.00;66.10
23731;DHT22;12046;44.702;10.622;2023-04-01T23:49:51;15.90;66.20
23731;DHT22;12046;44.702;10.622;2023-04-01T23:52:27;15.90;66.40
23731;DHT22;12046;44.702;10.622;2023-04-01T23:54:58;15.90;66.60
23731;DHT22;12046;44.702;10.622;2023-04-01T23:57:33;15.90;66.80
